Radiosonde details



Informationen :

Serial : Y0552606
Type : Vaisala RS41-NG
Date of production : 30.01.2026
Frequency : 404.800MHz
Launchsite : Boise, Boise Air Terminal
Nearest town : Cascade, US (55.3km)

Altitude (Max) : 15863m at 2026-09-05 17:54:37
Speed (Max) : 180km/h at altitude 10748m

Average speed : 96km/h
Average ascent rate : 5m/s
Average descent rate : -6m/s
Ascent rate (Max) : 7.7m/s
Descent rate (Max): -7.1m/s

First frame :
KE7DJD at 2026-09-05 17:03:10 at altitude 1207m (OG: 291m)
Last frame :
KE7DJD at 2026-09-05 19:25:31 at altitude 4121m (OG: 1602m)

Flighttime : 2h22m21s
Ascent time : 51m27s
Descent time : 1h30m54s
Uptime : -
Killtimer : 7h49m

Distance (Straight line distance): 146km

Distance (Route):


Frames : 170


Measurement :

Temperature : -4.9°C
Humidity : 116.5%
Pressure : 0hPa


Vertical profile (SkewT) :


Elevation profile :



Receiving stations :


Receiver Frames First received Last received
KE7DJD 170 2026-09-05 17:03:10 2026-09-05 19:25:31

Share per receiver :



All frames :


Receiver Date Latitude Longitude Direction Speed Altitude Climb Temperature Humidity Pressure Voltage Killtimer Uptime BKT XDATA
KE7DJD2026-09-05 19:25:3144.75624-115.42951357°47km/h4121m-4.1m/s-4.9°C116.5%0hPa0V07:49:0000:00:0000:00:00
KE7DJD2026-09-05 19:25:1144.75377-115.4294049km/h4214m-5.1m/s-6.0°C111.9%0hPa0V07:49:0000:00:0000:00:00
KE7DJD2026-09-05 19:24:5144.75111-115.4295655km/h4334m-6.8m/s-7.2°C114.9%0hPa0V07:50:0000:00:0000:00:00
KE7DJD2026-09-05 19:24:3144.74821-115.4300764km/h4452m-7.1m/s-7.0°C115.6%0hPa0V07:50:0000:00:0000:00:00
KE7DJD2026-09-05 19:23:5044.74127-115.4320811°68km/h4714m-5.4m/s-9.5°C84.0%0hPa0V07:51:0000:00:0000:00:00
KE7DJD2026-09-05 19:23:2944.73775-115.4328966km/h4827m-5.2m/s-10.4°C82.0%0hPa0V07:51:0000:00:0000:00:00
KE7DJD2026-09-05 19:23:0844.73431-115.4339213°66km/h4943m-5.4m/s-11.1°C64.1%0hPa0V07:52:0000:00:0000:00:00
KE7DJD2026-09-05 19:22:4844.73109-115.4352023°66km/h5049m-5.4m/s-10.5°C13.0%0hPa0V07:52:0000:00:0000:00:00
KE7DJD2026-09-05 19:22:2744.72799-115.4371225°62km/h5159m-4.9m/s-10.8°C13.2%0hPa0V07:52:0000:00:0000:00:00
KE7DJD2026-09-05 19:22:0744.72508-115.4392929°66km/h5265m-5.1m/s-11.3°C14.4%0hPa0V07:53:0000:00:0000:00:00
KE7DJD2026-09-05 19:21:4644.72189-115.4416930°69km/h5378m-5.6m/s-11.9°C15.1%0hPa0V07:53:0000:00:0000:00:00
KE7DJD2026-09-05 19:21:2544.71852-115.4444431°77km/h5492m-6.0m/s-12.3°C11.9%0hPa0V07:53:0000:00:0000:00:00
KE7DJD2026-09-05 19:21:0444.71481-115.4472727°80km/h5609m-5.6m/s-13.0°C14.4%0hPa0V07:53:0000:00:0000:00:00
KE7DJD2026-09-05 19:20:4444.71111-115.4497525°80km/h5724m-5.8m/s-13.7°C11.7%0hPa0V07:53:0000:00:0000:00:00
KE7DJD2026-09-05 19:20:2344.70703-115.4522125°86km/h5845m-6.0m/s-14.4°C11.6%0hPa0V07:54:0000:00:0000:00:00
KE7DJD2026-09-05 19:20:0344.70293-115.4545623°86km/h5957m-6.1m/s-14.8°C11.6%0hPa0V07:54:0000:00:0000:00:00
KE7DJD2026-09-05 19:19:4244.69867-115.4570223°88km/h6082m-6.2m/s-15.9°C13.6%0hPa0V07:55:0000:00:0000:00:00
KE7DJD2026-09-05 19:19:2244.69456-115.4593122°89km/h6197m-5.8m/s-16.9°C15.8%0hPa0V07:55:0000:00:0000:00:00
KE7DJD2026-09-05 19:19:0144.69016-115.4617123°88km/h6321m-6.8m/s-17.9°C21.1%0hPa0V07:55:0000:00:0000:00:00
KE7DJD2026-09-05 19:18:4044.68579-115.4641621°89km/h6448m-6.1m/s-19.0°C23.7%0hPa0V07:56:0000:00:0000:00:00
KE7DJD2026-09-05 19:18:2044.68151-115.4664623°91km/h6572m-6.5m/s-19.9°C20.0%0hPa0V07:56:0000:00:0000:00:00
KE7DJD2026-09-05 19:17:5944.67702-115.4690224°93km/h6712m-6.8m/s-20.9°C10.7%0hPa0V00:00:0000:00:0000:00:00
KE7DJD2026-09-05 17:54:3744.22383-115.68616358°69km/h15863m7.1m/s-55.4°C2.0%0hPa0V00:00:0000:00:0000:00:00
KE7DJD2026-09-05 17:54:1744.22061-115.6859810°46km/h15767m6.6m/s-54.8°C2.0%0hPa0V00:00:0000:00:0000:00:00
KE7DJD2026-09-05 17:53:5744.21772-115.6861610°64km/h15670m5.1m/s-54.1°C1.9%0hPa0V00:00:0000:00:0000:00:00
KE7DJD2026-09-05 17:53:3644.21518-115.6867011°58km/h15562m2.9m/s-53.4°C1.9%0hPa0V00:00:0000:00:0000:00:00
KE7DJD2026-09-05 17:53:1544.21292-115.6880344°40km/h15462m4.7m/s-54.7°C2.0%0hPa0V00:00:0000:00:0000:00:00
KE7DJD2026-09-05 17:52:5544.21051-115.6902133°68km/h15364m5.5m/s-54.7°C2.1%0hPa0V00:00:0000:00:0000:00:00
KE7DJD2026-09-05 17:52:1244.20508-115.6960543°68km/h15162m6.3m/s-54.3°C2.1%0hPa0V00:00:0000:00:0000:00:00
KE7DJD2026-09-05 17:51:5144.20193-115.6996238°91km/h15059m5.2m/s-54.2°C2.1%0hPa0V00:00:0000:00:0000:00:00
KE7DJD2026-09-05 17:51:3144.19875-115.7030238°93km/h14961m4.2m/s-53.5°C2.0%0hPa0V00:00:0000:00:0000:00:00
KE7DJD2026-09-05 17:51:1044.19545-115.7065834°84km/h14860m5.6m/s-53.4°C2.0%0hPa0V00:00:0000:00:0000:00:00
KE7DJD2026-09-05 17:50:5044.19243-115.7102247°71km/h14760m4.9m/s-52.9°C2.0%0hPa0V00:00:0000:00:0000:00:00
KE7DJD2026-09-05 17:50:2944.18953-115.7142943°89km/h14659m3.6m/s-52.4°C1.9%0hPa0V00:00:0000:00:0000:00:00
KE7DJD2026-09-05 17:50:0944.18677-115.7185332°86km/h14565m5.3m/s-52.4°C1.9%0hPa0V00:00:0000:00:0000:00:00
KE7DJD2026-09-05 17:49:4844.18338-115.7227037°102km/h14459m2.7m/s-52.1°C2.0%0hPa0V00:00:0000:00:0000:00:00
KE7DJD2026-09-05 17:49:2844.17956-115.7261443°91km/h14360m6.5m/s-51.6°C1.9%0hPa0V00:00:0000:00:0000:00:00
KE7DJD2026-09-05 17:49:0744.17505-115.7294433°95km/h14263m5.2m/s-51.6°C2.0%0hPa0V00:00:0000:00:0000:00:00
KE7DJD2026-09-05 17:48:4744.17061-115.7324534°89km/h14172m4.7m/s-51.7°C2.1%0hPa0V00:00:0000:00:0000:00:00
KE7DJD2026-09-05 17:48:2644.16582-115.7353922°97km/h14073m5.7m/s-52.0°C2.3%0hPa0V00:00:0000:00:0000:00:00
KE7DJD2026-09-05 17:48:0644.16127-115.7378226°99km/h13981m2.9m/s-51.8°C2.2%0hPa0V00:00:0000:00:0000:00:00
KE7DJD2026-09-05 17:47:4644.15689-115.7401017°89km/h13885m6.0m/s-51.7°C2.3%0hPa0V00:00:0000:00:0000:00:00
KE7DJD2026-09-05 17:47:2544.15219-115.7428220°100km/h13782m5.6m/s-51.1°C2.2%0hPa0V00:00:0000:00:0000:00:00
KE7DJD2026-09-05 17:47:0444.14765-115.7460135°93km/h13680m5.7m/s-50.6°C2.0%0hPa0V00:00:0000:00:0000:00:00
KE7DJD2026-09-05 17:46:4444.14332-115.7493038°108km/h13585m3.8m/s-51.0°C2.0%0hPa0V00:00:0000:00:0000:00:00
KE7DJD2026-09-05 17:46:2444.13880-115.7528035°113km/h13492m5.3m/s-50.8°C2.1%0hPa0V00:00:0000:00:0000:00:00
KE7DJD2026-09-05 17:46:0344.13385-115.7567829°120km/h13395m3.5m/s-50.4°C2.0%0hPa0V00:00:0000:00:0000:00:00
KE7DJD2026-09-05 17:45:4344.12888-115.7606528°115km/h13300m4.0m/s-49.6°C2.0%0hPa0V00:00:0000:00:0000:00:00
KE7DJD2026-09-05 17:45:2344.12428-115.7642524°97km/h13209m6.4m/s-49.2°C2.0%0hPa0V00:00:0000:00:0000:00:00
KE7DJD2026-09-05 17:45:0144.11964-115.7682430°89km/h13113m2.9m/s-48.7°C2.0%0hPa0V00:00:0000:00:0000:00:00
KE7DJD2026-09-05 17:44:4044.11515-115.7726842°119km/h13018m5.2m/s-49.0°C2.4%0hPa0V00:00:0000:00:0000:00:00
KE7DJD2026-09-05 17:44:1944.11028-115.7772946°117km/h12926m3.1m/s-49.2°C2.7%0hPa0V00:00:0000:00:0000:00:00
KE7DJD2026-09-05 17:43:5944.10540-115.7818133°119km/h12836m4.7m/s-49.3°C3.0%0hPa0V00:00:0000:00:0000:00:00
KE7DJD2026-09-05 17:43:3944.10028-115.7864736°117km/h12747m6.2m/s-49.6°C3.0%0hPa0V00:00:0000:00:0000:00:00
KE7DJD2026-09-05 17:43:1944.09526-115.7912340°122km/h12656m3.5m/s-49.2°C3.1%0hPa0V00:00:0000:00:0000:00:00
KE7DJD2026-09-05 17:42:5844.09003-115.7962831°113km/h12560m2.7m/s-49.1°C3.3%0hPa0V00:00:0000:00:0000:00:00
KE7DJD2026-09-05 17:42:3744.08465-115.8015241°135km/h12463m5.8m/s-49.1°C3.6%0hPa0V00:00:0000:00:0000:00:00
KE7DJD2026-09-05 17:42:1644.07920-115.8069941°128km/h12369m2.9m/s-49.1°C4.0%0hPa0V00:00:0000:00:0000:00:00
KE7DJD2026-09-05 17:41:5544.07344-115.8127837°135km/h12272m6.1m/s-49.1°C4.3%0hPa0V00:00:0000:00:0000:00:00
KE7DJD2026-09-05 17:41:3444.06753-115.8186936°139km/h12180m5.5m/s-49.0°C4.6%0hPa0V00:00:0000:00:0000:00:00
KE7DJD2026-09-05 17:41:1444.06186-115.8245042°135km/h12092m4.4m/s-50.0°C6.0%0hPa0V00:00:0000:00:0000:00:00
KE7DJD2026-09-05 17:40:5344.05562-115.8313340°146km/h12001m4.3m/s-50.5°C7.0%0hPa0V00:00:0000:00:0000:00:00
KE7DJD2026-09-05 17:40:3344.04945-115.8374835°141km/h11911m5.3m/s-50.4°C7.0%0hPa0V00:00:0000:00:0000:00:00
KE7DJD2026-09-05 17:40:1144.04256-115.8438633°128km/h11821m5.0m/s-49.8°C6.8%0hPa0V00:00:0000:00:0000:00:00
KE7DJD2026-09-05 17:39:5144.03649-115.8494536°142km/h11735m5.2m/s-49.6°C8.6%0hPa0V00:00:0000:00:0000:00:00
KE7DJD2026-09-05 17:39:3144.03050-115.8557036°157km/h11651m3.6m/s-50.7°C11.1%0hPa0V00:00:0000:00:0000:00:00
KE7DJD2026-09-05 17:39:1044.02390-115.8629242°153km/h11560m3.6m/s-50.8°C16.9%0hPa0V00:00:0000:00:0000:00:00
KE7DJD2026-09-05 17:38:5044.01727-115.8700938°159km/h11475m4.9m/s-50.8°C19.9%0hPa0V00:00:0000:00:0000:00:00
KE7DJD2026-09-05 17:38:3044.01036-115.8770739°173km/h11389m3.9m/s-50.6°C20.0%0hPa0V00:00:0000:00:0000:00:00
KE7DJD2026-09-05 17:38:1044.00334-115.8837733°159km/h11299m3.7m/s-49.9°C17.5%0hPa0V00:00:0000:00:0000:00:00
KE7DJD2026-09-05 17:37:4943.99577-115.8905332°172km/h11207m5.2m/s-49.6°C15.3%0hPa0V00:00:0000:00:0000:00:00
KE7DJD2026-09-05 17:37:2843.98819-115.8971432°173km/h11113m5.6m/s-49.6°C18.3%0hPa0V00:00:0000:00:0000:00:00
KE7DJD2026-09-05 17:37:0743.98068-115.9038940°161km/h11017m3.1m/s-49.8°C21.2%0hPa0V00:00:0000:00:0000:00:00
KE7DJD2026-09-05 17:36:4643.97338-115.9107339°155km/h10927m3.1m/s-49.9°C25.2%0hPa0V00:00:0000:00:0000:00:00
KE7DJD2026-09-05 17:36:2643.96660-115.9175336°168km/h10841m5.3m/s-49.7°C30.3%0hPa0V00:00:0000:00:0000:00:00
KE7DJD2026-09-05 17:36:0543.95923-115.9246031°177km/h10748m4.0m/s-49.0°C34.1%0hPa0V00:00:0000:00:0000:00:00
KE7DJD2026-09-05 17:35:4643.95214-115.9310628°172km/h10660m3.7m/s-48.5°C40.9%0hPa0V00:00:0000:00:0000:00:00
KE7DJD2026-09-05 17:35:2443.94456-115.9373632°175km/h10570m2.1m/s-48.2°C45.1%0hPa0V00:00:0000:00:0000:00:00
KE7DJD2026-09-05 17:35:0443.93761-115.9432737°148km/h10483m2.5m/s-47.7°C46.2%0hPa0V00:00:0000:00:0000:00:00
KE7DJD2026-09-05 17:34:4343.93048-115.9498636°168km/h10389m3.8m/s-47.2°C38.6%0hPa0V00:00:0000:00:0000:00:00
KE7DJD2026-09-05 17:34:2343.92375-115.9557735°157km/h10300m4.0m/s-46.8°C50.2%0hPa0V00:00:0000:00:0000:00:00
KE7DJD2026-09-05 17:34:0343.91695-115.9613730°157km/h10210m4.4m/s-46.1°C63.5%0hPa0V00:00:0000:00:0000:00:00
KE7DJD2026-09-05 17:33:4343.91031-115.9667526°157km/h10122m3.9m/s-45.7°C54.6%0hPa0V00:00:0000:00:0000:00:00
KE7DJD2026-09-05 17:33:2243.90337-115.9722131°148km/h10034m4.7m/s-44.8°C51.4%0hPa0V00:00:0000:00:0000:00:00
KE7DJD2026-09-05 17:33:0143.89659-115.9776833°151km/h9943m3.7m/s-44.0°C45.9%0hPa0V00:00:0000:00:0000:00:00
KE7DJD2026-09-05 17:32:4143.89021-115.9829332°142km/h9854m5.8m/s-43.5°C44.4%0hPa0V00:00:0000:00:0000:00:00
KE7DJD2026-09-05 17:32:2143.88399-115.9880530°150km/h9769m2.6m/s-42.9°C50.2%0hPa0V00:00:0000:00:0000:00:00
KE7DJD2026-09-05 17:32:0143.87782-115.9931836°146km/h9681m5.8m/s-42.1°C44.9%0hPa0V00:00:0000:00:0000:00:00
KE7DJD2026-09-05 17:31:4043.87140-115.9986129°139km/h9588m5.1m/s-41.4°C43.3%0hPa0V00:00:0000:00:0000:00:00
KE7DJD2026-09-05 17:31:1943.86508-116.0038830°142km/h9501m4.6m/s-40.6°C47.4%0hPa0V00:00:0000:00:0000:00:00
KE7DJD2026-09-05 17:30:5943.85869-116.0091231°135km/h9412m4.6m/s-39.8°C51.0%0hPa0V00:00:0000:00:0000:00:00
KE7DJD2026-09-05 17:30:1743.84629-116.0193837°139km/h9235m3.5m/s-38.6°C28.1%0hPa0V00:00:0000:00:0000:00:00
KE7DJD2026-09-05 17:29:5643.83997-116.0243529°142km/h9146m4.3m/s-37.9°C28.7%0hPa0V00:00:0000:00:0000:00:00
KE7DJD2026-09-05 17:29:3643.83394-116.0289525°128km/h9060m4.4m/s-37.0°C23.4%0hPa0V00:00:0000:00:0000:00:00
KE7DJD2026-09-05 17:29:1543.82766-116.0338129°135km/h8970m5.2m/s-36.5°C27.2%0hPa0V00:00:0000:00:0000:00:00
KE7DJD2026-09-05 17:28:5443.82144-116.0385929°128km/h8877m4.8m/s-35.7°C24.0%0hPa0V00:00:0000:00:0000:00:00
KE7DJD2026-09-05 17:28:3443.81558-116.0431133°117km/h8789m3.8m/s-35.2°C29.6%0hPa0V00:00:0000:00:0000:00:00
KE7DJD2026-09-05 17:28:1343.80940-116.0479432°137km/h8699m5.5m/s-34.5°C32.8%0hPa0V00:00:0000:00:0000:00:00
KE7DJD2026-09-05 17:27:5343.80360-116.0524826°135km/h8615m3.2m/s-33.8°C33.2%0hPa0V00:00:0000:00:0000:00:00
KE7DJD2026-09-05 17:27:3243.79761-116.0573027°126km/h8522m4.3m/s-32.9°C31.5%0hPa0V00:00:0000:00:0000:00:00
KE7DJD2026-09-05 17:27:1243.79187-116.0619933°135km/h8435m4.6m/s-32.2°C30.0%0hPa0V00:00:0000:00:0000:00:00
KE7DJD2026-09-05 17:26:5143.78592-116.0668232°124km/h8346m5.4m/s-31.4°C28.0%0hPa0V00:00:0000:00:0000:00:00
KE7DJD2026-09-05 17:26:3043.78000-116.0715531°130km/h8258m4.7m/s-30.6°C27.6%0hPa0V00:00:0000:00:0000:00:00
KE7DJD2026-09-05 17:26:1043.77427-116.0760033°139km/h8173m3.6m/s-29.9°C25.7%0hPa0V00:00:0000:00:0000:00:00
KE7DJD2026-09-05 17:25:4943.76822-116.0805731°133km/h8084m3.1m/s-29.1°C21.8%0hPa0V00:00:0000:00:0000:00:00
KE7DJD2026-09-05 17:25:2843.76226-116.0851734°142km/h7997m3.5m/s-28.2°C20.9%0hPa0V00:00:0000:00:0000:00:00
KE7DJD2026-09-05 17:25:0743.75649-116.0898425°128km/h7908m3.7m/s-27.7°C22.4%0hPa0V00:00:0000:00:0000:00:00
KE7DJD2026-09-05 17:24:2743.74637-116.0989229°133km/h7661m7.7m/s-26.0°C21.0%0hPa0V00:00:0000:00:0000:00:00
KE7DJD2026-09-05 17:24:0643.74116-116.1028221°124km/h7528m6.5m/s-25.0°C19.3%0hPa0V00:00:0000:00:0000:00:00
KE7DJD2026-09-05 17:23:4643.73597-116.1060826°102km/h7422m3.8m/s-24.1°C19.7%0hPa0V00:00:0000:00:0000:00:00
KE7DJD2026-09-05 17:23:2743.73058-116.1092020°119km/h7329m4.2m/s-23.3°C19.3%0hPa0V00:00:0000:00:0000:00:00
KE7DJD2026-09-05 17:23:0543.72494-116.1127931°128km/h7230m3.3m/s-22.8°C18.1%0hPa0V00:00:0000:00:0000:00:00
KE7DJD2026-09-05 17:22:4443.71950-116.1166427°115km/h7132m4.9m/s-22.3°C12.6%0hPa0V00:00:0000:00:0000:00:00
KE7DJD2026-09-05 17:22:2443.71471-116.1203631°113km/h7033m6.0m/s-21.8°C9.0%0hPa0V00:00:0000:00:0000:00:00
KE7DJD2026-09-05 17:22:0343.70996-116.1239627°97km/h6930m4.3m/s-21.3°C7.3%0hPa0V00:00:0000:00:0000:00:00
KE7DJD2026-09-05 17:21:4243.70519-116.1272630°110km/h6835m5.0m/s-20.5°C6.8%0hPa0V00:00:0000:00:0000:00:00
KE7DJD2026-09-05 17:21:2243.70066-116.1305029°104km/h6747m4.8m/s-20.0°C7.0%0hPa0V00:00:0000:00:0000:00:00
KE7DJD2026-09-05 17:21:0143.69619-116.1336737°99km/h6652m4.1m/s-19.7°C8.8%0hPa0V00:00:0000:00:0000:00:00
KE7DJD2026-09-05 17:20:4043.69207-116.1367625°84km/h6560m4.2m/s-19.3°C15.6%0hPa0V00:00:0000:00:0000:00:00
KE7DJD2026-09-05 17:20:2043.68832-116.1396032°88km/h6477m4.3m/s-18.5°C17.0%0hPa0V00:00:0000:00:0000:00:00
KE7DJD2026-09-05 17:19:5943.68434-116.1425234°78km/h6386m3.2m/s-17.9°C18.4%0hPa0V00:00:0000:00:0000:00:00
KE7DJD2026-09-05 17:19:3843.68040-116.1454625°89km/h6300m4.9m/s-17.2°C18.1%0hPa0V00:00:0000:00:0000:00:00
KE7DJD2026-09-05 17:19:1843.67667-116.1482228°89km/h6218m4.9m/s-16.6°C20.5%0hPa0V00:00:0000:00:0000:00:00
KE7DJD2026-09-05 17:18:5743.67275-116.1511638°78km/h6132m3.4m/s-15.9°C19.3%0hPa0V00:00:0000:00:0000:00:00
KE7DJD2026-09-05 17:18:3743.66898-116.1536730°91km/h6050m5.2m/s-15.3°C20.0%0hPa0V00:00:0000:00:0000:00:00
KE7DJD2026-09-05 17:18:1743.66523-116.1560926°84km/h5968m4.3m/s-14.5°C17.5%0hPa0V00:00:0000:00:0000:00:00
KE7DJD2026-09-05 17:17:5743.66137-116.1583917°82km/h5886m5.4m/s-13.9°C16.3%0hPa0V00:00:0000:00:0000:00:00
KE7DJD2026-09-05 17:17:3643.65730-116.1607733°84km/h5799m5.0m/s-13.2°C14.0%0hPa0V00:00:0000:00:0000:00:00
KE7DJD2026-09-05 17:17:1643.65362-116.1634934°82km/h5682m7.4m/s-12.4°C14.4%0hPa0V00:00:0000:00:0000:00:00
KE7DJD2026-09-05 17:16:5543.64962-116.1659026°89km/h5567m3.6m/s-11.4°C10.1%0hPa0V00:00:0000:00:0000:00:00
KE7DJD2026-09-05 17:16:3443.64553-116.1682922°78km/h5481m4.5m/s-10.9°C11.0%0hPa0V00:00:0000:00:0000:00:00
KE7DJD2026-09-05 17:16:1443.64192-116.1706927°66km/h5394m4.2m/s-10.6°C9.9%0hPa0V00:00:0000:00:0000:00:00
KE7DJD2026-09-05 17:15:5443.63838-116.1732129°80km/h5312m4.6m/s-9.9°C10.7%0hPa0V00:00:0000:00:0000:00:00
KE7DJD2026-09-05 17:15:3343.63468-116.1760141°86km/h5224m4.9m/s-9.2°C8.2%0hPa0V00:00:0000:00:0000:00:00
KE7DJD2026-09-05 17:15:1343.63112-116.1788831°69km/h5126m3.8m/s-8.5°C6.5%0hPa0V00:00:0000:00:0000:00:00
KE7DJD2026-09-05 17:14:5143.62763-116.1820937°89km/h5030m7.3m/s-8.1°C5.7%0hPa0V00:00:0000:00:0000:00:00
KE7DJD2026-09-05 17:14:3143.62467-116.1850816°60km/h4901m4.8m/s-7.7°C5.0%0hPa0V00:00:0000:00:0000:00:00
KE7DJD2026-09-05 17:14:1043.62184-116.1874743°73km/h4786m4.2m/s-7.2°C8.5%0hPa0V00:00:0000:00:0000:00:00
KE7DJD2026-09-05 17:13:4943.61902-116.1900835°80km/h4686m4.2m/s-6.8°C6.3%0hPa0V00:00:0000:00:0000:00:00
KE7DJD2026-09-05 17:13:2943.61632-116.1924846°64km/h4590m6.9m/s-6.7°C11.8%0hPa0V00:00:0000:00:0000:00:00
KE7DJD2026-09-05 17:13:0843.61388-116.1942915°62km/h4467m4.8m/s-5.9°C12.7%0hPa0V00:00:0000:00:0000:00:00
KE7DJD2026-09-05 17:12:4743.61117-116.1959338°55km/h4351m5.1m/s-5.5°C16.2%0hPa0V00:00:0000:00:0000:00:00
KE7DJD2026-09-05 17:12:2643.60855-116.1972627°75km/h4227m6.0m/s-6.0°C60.7%0hPa0V00:00:0000:00:0000:00:00
KE7DJD2026-09-05 17:12:0643.60548-116.1988634°55km/h4111m5.6m/s-5.3°C83.8%0hPa0V00:00:0000:00:0000:00:00
KE7DJD2026-09-05 17:11:4543.60255-116.2006337°60km/h4005m4.4m/s-4.5°C85.6%0hPa0V00:00:0000:00:0000:00:00
KE7DJD2026-09-05 17:11:2543.59947-116.2022111°62km/h3896m4.9m/s-3.6°C83.5%0hPa0V00:00:0000:00:0000:00:00
KE7DJD2026-09-05 17:11:0443.59644-116.2039451km/h3776m5.2m/s-2.5°C85.7%0hPa0V00:00:0000:00:0000:00:00
KE7DJD2026-09-05 17:10:4443.59357-116.2057518°55km/h3656m4.8m/s-1.6°C82.1%0hPa0V00:00:0000:00:0000:00:00
KE7DJD2026-09-05 17:10:2243.59098-116.2084149°58km/h3538m5.9m/s-1.1°C51.9%0hPa0V00:00:0000:00:0000:00:00
KE7DJD2026-09-05 17:10:0243.58900-116.2104052°53km/h3412m5.6m/s-0.5°C45.0%0hPa0V00:00:0000:00:0000:00:00
KE7DJD2026-09-05 17:09:4143.58725-116.2118040°47km/h3303m5.5m/s-0.1°C70.8%0hPa0V00:00:0000:00:0000:00:00
KE7DJD2026-09-05 17:09:2143.58521-116.2127747km/h3191m4.6m/s0.8°C73.6%0hPa0V00:00:0000:00:0000:00:00
KE7DJD2026-09-05 17:09:0043.58318-116.2138028°20km/h3073m5.3m/s1.8°C70.0%0hPa0V00:00:0000:00:0000:00:00
KE7DJD2026-09-05 17:08:3943.58137-116.2144232°18km/h2963m5.3m/s2.6°C67.0%0hPa0V00:00:0000:00:0000:00:00
KE7DJD2026-09-05 17:08:1843.57991-116.2153851°42km/h2859m4.2m/s3.4°C59.8%0hPa0V00:00:0000:00:0000:00:00
KE7DJD2026-09-05 17:07:5743.57850-116.21643355°31km/h2751m6.4m/s4.1°C56.0%0hPa0V00:00:0000:00:0000:00:00
KE7DJD2026-09-05 17:07:3743.57749-116.2166833°13km/h2642m6.6m/s4.6°C68.3%0hPa0V00:00:0000:00:0000:00:00
KE7DJD2026-09-05 17:07:1643.57654-116.21670323°31km/h2530m6.5m/s5.4°C73.8%0hPa0V00:00:0000:00:0000:00:00
KE7DJD2026-09-05 17:06:5643.57545-116.21641322°18km/h2430m6.4m/s6.3°C67.1%0hPa0V00:00:0000:00:0000:00:00
KE7DJD2026-09-05 17:06:3543.57432-116.2162324°26km/h2316m4.9m/s7.4°C57.6%0hPa0V00:00:0000:00:0000:00:00
KE7DJD2026-09-05 17:06:1543.57331-116.2159016°20km/h2220m4.4m/s8.1°C49.0%0hPa0V00:00:0000:00:0000:00:00
KE7DJD2026-09-05 17:05:5443.57210-116.2154227°20km/h2101m6.3m/s8.8°C46.1%0hPa0V00:00:0000:00:0000:00:00
KE7DJD2026-09-05 17:05:3343.57139-116.21483310°22km/h1986m6.6m/s9.8°C43.4%0hPa0V00:00:0000:00:0000:00:00
KE7DJD2026-09-05 17:05:1343.57061-116.2144328°18km/h1879m3.9m/s10.3°C55.1%0hPa0V00:00:0000:00:0000:00:00
KE7DJD2026-09-05 17:04:5343.56978-116.21410291°22km/h1768m5.0m/s10.4°C63.1%0hPa0V00:00:0000:00:0000:00:00
KE7DJD2026-09-05 17:04:3543.56935-116.21362174°5km/h1664m5.0m/s10.9°C63.1%0hPa0V00:00:0000:00:0000:00:00
KE7DJD2026-09-05 17:04:1143.56871-116.21293307°29km/h1551m4.7m/s11.6°C55.9%0hPa0V00:00:0000:00:0000:00:00
KE7DJD2026-09-05 17:03:5143.56842-116.21202300°35km/h1446m6.7m/s0°C0%0hPa0V00:00:0000:00:0000:00:00
KE7DJD2026-09-05 17:03:3143.56811-116.21091330°16km/h1332m7.0m/s0°C0%0hPa0V00:00:0000:00:0000:00:00
KE7DJD2026-09-05 17:03:1043.56780-116.21020193°7km/h1207m6.2m/s0°C0%0hPa0V00:00:0000:00:0000:00:00


GPX KML Map

© wettersonde.net (DO2JMG) - 2026  -  -